sensor_id;sensor_type;location;lat;lon;timestamp;pressure;altitude;pressure_sealevel;temperature;humidity
62942;BME280;49042;47.318;19.874;2023-04-21T00:00:08;100367.31;;;8.64;86.72
62942;BME280;49042;47.318;19.874;2023-04-21T00:03:11;100364.44;;;8.57;87.38
62942;BME280;49042;47.318;19.874;2023-04-21T00:06:13;100366.09;;;8.55;87.61
62942;BME280;49042;47.318;19.874;2023-04-21T00:09:15;100359.63;;;8.44;88.63
62942;BME280;49042;47.318;19.874;2023-04-21T00:12:19;100354.34;;;8.42;89.14
62942;BME280;49042;47.318;19.874;2023-04-21T00:15:21;100346.97;;;8.30;90.27
62942;BME280;49042;47.318;19.874;2023-04-21T00:18:22;100340.03;;;8.31;90.56
62942;BME280;49042;47.318;19.874;2023-04-21T00:21:25;100348.16;;;8.16;91.79
62942;BME280;49042;47.318;19.874;2023-04-21T00:24:27;100345.16;;;8.06;92.34
62942;BME280;49042;47.318;19.874;2023-04-21T00:27:28;100342.31;;;8.00;93.06
62942;BME280;49042;47.318;19.874;2023-04-21T00:30:30;100346.50;;;7.96;93.62
62942;BME280;49042;47.318;19.874;2023-04-21T00:33:32;100334.34;;;7.95;93.54
62942;BME280;49042;47.318;19.874;2023-04-21T00:36:33;100346.81;;;8.04;93.14
62942;BME280;49042;47.318;19.874;2023-04-21T00:39:35;100339.72;;;8.00;93.41
62942;BME280;49042;47.318;19.874;2023-04-21T00:42:37;100334.09;;;7.89;94.14
62942;BME280;49042;47.318;19.874;2023-04-21T00:45:38;100335.22;;;7.96;93.53
62942;BME280;49042;47.318;19.874;2023-04-21T00:48:40;100328.78;;;7.86;94.23
62942;BME280;49042;47.318;19.874;2023-04-21T00:51:42;100336.56;;;7.86;94.40
62942;BME280;49042;47.318;19.874;2023-04-21T00:54:44;100329.56;;;7.83;94.74
62942;BME280;49042;47.318;19.874;2023-04-21T00:57:46;100329.03;;;7.70;95.46
62942;BME280;49042;47.318;19.874;2023-04-21T01:00:49;100332.47;;;7.69;95.84
62942;BME280;49042;47.318;19.874;2023-04-21T01:03:51;100325.37;;;7.65;96.05
62942;BME280;49042;47.318;19.874;2023-04-21T01:06:53;100334.53;;;7.57;96.44
62942;BME280;49042;47.318;19.874;2023-04-21T01:09:55;100334.25;;;7.49;97.07
62942;BME280;49042;47.318;19.874;2023-04-21T01:12:56;100334.53;;;7.35;97.78
62942;BME280;49042;47.318;19.874;2023-04-21T01:15:58;100333.38;;;7.28;98.28
62942;BME280;49042;47.318;19.874;2023-04-21T01:19:00;100333.16;;;7.44;97.14
62942;BME280;49042;47.318;19.874;2023-04-21T01:22:02;100329.28;;;7.34;97.79
62942;BME280;49042;47.318;19.874;2023-04-21T01:25:04;100326.62;;;7.32;97.55
62942;BME280;49042;47.318;19.874;2023-04-21T01:28:06;100332.56;;;7.30;97.74
62942;BME280;49042;47.318;19.874;2023-04-21T01:31:08;100333.59;;;7.33;97.30
62942;BME280;49042;47.318;19.874;2023-04-21T01:34:09;100331.31;;;7.41;96.84
62942;BME280;49042;47.318;19.874;2023-04-21T01:37:14;100331.75;;;7.31;97.26
62942;BME280;49042;47.318;19.874;2023-04-21T01:40:16;100332.34;;;7.25;97.63
62942;BME280;49042;47.318;19.874;2023-04-21T01:43:20;100331.75;;;7.31;96.96
62942;BME280;49042;47.318;19.874;2023-04-21T01:46:23;100331.00;;;7.33;96.80
62942;BME280;49042;47.318;19.874;2023-04-21T01:49:25;100337.88;;;7.33;96.27
62942;BME280;49042;47.318;19.874;2023-04-21T01:52:27;100339.13;;;7.21;96.79
62942;BME280;49042;47.318;19.874;2023-04-21T01:55:29;100342.97;;;7.10;97.22
62942;BME280;49042;47.318;19.874;2023-04-21T01:58:31;100341.19;;;7.09;97.23
62942;BME280;49042;47.318;19.874;2023-04-21T02:01:32;100346.66;;;6.95;97.74
62942;BME280;49042;47.318;19.874;2023-04-21T02:04:36;100347.84;;;6.82;97.95
62942;BME280;49042;47.318;19.874;2023-04-21T02:07:38;100340.72;;;6.78;98.46
62942;BME280;49042;47.318;19.874;2023-04-21T02:10:40;100347.97;;;6.85;98.24
62942;BME280;49042;47.318;19.874;2023-04-21T02:13:41;100340.25;;;6.87;97.49
62942;BME280;49042;47.318;19.874;2023-04-21T02:16:43;100341.75;;;6.81;97.94
62942;BME280;49042;47.318;19.874;2023-04-21T02:19:45;100347.06;;;6.84;97.75
62942;BME280;49042;47.318;19.874;2023-04-21T02:22:48;100345.97;;;6.79;98.03
62942;BME280;49042;47.318;19.874;2023-04-21T02:25:49;100344.12;;;6.57;99.11
62942;BME280;49042;47.318;19.874;2023-04-21T02:28:51;100346.50;;;6.52;99.72
62942;BME280;49042;47.318;19.874;2023-04-21T02:31:53;100342.41;;;6.57;98.97
62942;BME280;49042;47.318;19.874;2023-04-21T02:35:03;100347.78;;;6.62;98.03
62942;BME280;49042;47.318;19.874;2023-04-21T02:38:05;100346.50;;;6.52;98.36
62942;BME280;49042;47.318;19.874;2023-04-21T02:41:09;100347.75;;;6.60;97.51
62942;BME280;49042;47.318;19.874;2023-04-21T02:44:11;100352.94;;;6.60;96.84
62942;BME280;49042;47.318;19.874;2023-04-21T02:47:16;100354.69;;;6.61;96.43
62942;BME280;49042;47.318;19.874;2023-04-21T02:50:17;100362.31;;;6.58;96.21
62942;BME280;49042;47.318;19.874;2023-04-21T02:53:19;100358.78;;;6.56;95.89
62942;BME280;49042;47.318;19.874;2023-04-21T02:56:21;100361.38;;;6.56;96.06
62942;BME280;49042;47.318;19.874;2023-04-21T02:59:23;100367.50;;;6.58;95.40
62942;BME280;49042;47.318;19.874;2023-04-21T03:02:24;100370.84;;;6.56;94.77
62942;BME280;49042;47.318;19.874;2023-04-21T03:05:27;100369.91;;;6.53;94.49
62942;BME280;49042;47.318;19.874;2023-04-21T03:08:29;100371.88;;;6.59;93.75
62942;BME280;49042;47.318;19.874;2023-04-21T03:11:31;100381.84;;;6.70;93.42
62942;BME280;49042;47.318;19.874;2023-04-21T03:14:33;100374.47;;;6.59;93.59
62942;BME280;49042;47.318;19.874;2023-04-21T03:17:34;100380.41;;;6.57;93.93
62942;BME280;49042;47.318;19.874;2023-04-21T03:20:36;100377.19;;;6.62;93.41
62942;BME280;49042;47.318;19.874;2023-04-21T03:23:38;100374.50;;;6.41;94.49
62942;BME280;49042;47.318;19.874;2023-04-21T03:26:40;100380.56;;;6.41;94.97
62942;BME280;49042;47.318;19.874;2023-04-21T03:29:41;100380.72;;;6.26;95.93
62942;BME280;49042;47.318;19.874;2023-04-21T03:32:43;100380.44;;;6.38;95.08
62942;BME280;49042;47.318;19.874;2023-04-21T03:35:45;100381.22;;;6.37;94.93
62942;BME280;49042;47.318;19.874;2023-04-21T03:38:47;100385.84;;;6.25;95.26
62942;BME280;49042;47.318;19.874;2023-04-21T03:41:48;100384.34;;;6.30;95.21
62942;BME280;49042;47.318;19.874;2023-04-21T03:44:50;100387.53;;;6.24;95.60
62942;BME280;49042;47.318;19.874;2023-04-21T03:47:52;100387.78;;;6.29;95.27
62942;BME280;49042;47.318;19.874;2023-04-21T03:50:55;100389.47;;;6.28;95.05
62942;BME280;49042;47.318;19.874;2023-04-21T03:53:57;100384.94;;;6.24;95.78
62942;BME280;49042;47.318;19.874;2023-04-21T03:56:59;100387.97;;;6.15;96.15
62942;BME280;49042;47.318;19.874;2023-04-21T04:00:00;100388.09;;;6.18;96.21
62942;BME280;49042;47.318;19.874;2023-04-21T04:03:02;100389.37;;;6.45;94.62
62942;BME280;49042;47.318;19.874;2023-04-21T04:06:04;100395.19;;;6.59;92.80
62942;BME280;49042;47.318;19.874;2023-04-21T04:09:06;100385.19;;;6.67;92.11
62942;BME280;49042;47.318;19.874;2023-04-21T04:12:09;100393.00;;;6.87;90.63
62942;BME280;49042;47.318;19.874;2023-04-21T04:15:12;100406.22;;;6.93;90.37
62942;BME280;49042;47.318;19.874;2023-04-21T04:18:14;100402.69;;;7.11;88.57
62942;BME280;49042;47.318;19.874;2023-04-21T04:21:15;100398.06;;;7.24;87.98
62942;BME280;49042;47.318;19.874;2023-04-21T04:24:17;100401.94;;;7.34;86.93
62942;BME280;49042;47.318;19.874;2023-04-21T04:27:19;100396.25;;;7.43;86.22
62942;BME280;49042;47.318;19.874;2023-04-21T04:30:21;100395.53;;;7.45;85.57
62942;BME280;49042;47.318;19.874;2023-04-21T04:33:24;100400.13;;;7.53;85.25
62942;BME280;49042;47.318;19.874;2023-04-21T04:36:26;100404.62;;;7.57;85.37
62942;BME280;49042;47.318;19.874;2023-04-21T04:39:29;100412.38;;;7.55;85.99
62942;BME280;49042;47.318;19.874;2023-04-21T04:42:32;100410.03;;;7.62;86.30
62942;BME280;49042;47.318;19.874;2023-04-21T04:45:35;100417.63;;;7.78;85.85
62942;BME280;49042;47.318;19.874;2023-04-21T04:48:38;100419.47;;;7.59;88.99
62942;BME280;49042;47.318;19.874;2023-04-21T04:51:40;100420.16;;;7.55;90.72
62942;BME280;49042;47.318;19.874;2023-04-21T04:54:41;100420.84;;;7.51;91.26
62942;BME280;49042;47.318;19.874;2023-04-21T04:57:43;100420.75;;;7.49;93.21
62942;BME280;49042;47.318;19.874;2023-04-21T05:00:45;100423.63;;;7.56;94.58
62942;BME280;49042;47.318;19.874;2023-04-21T05:03:47;100413.56;;;7.64;94.44
62942;BME280;49042;47.318;19.874;2023-04-21T05:06:49;100418.97;;;7.90;93.85
62942;BME280;49042;47.318;19.874;2023-04-21T05:09:50;100427.22;;;8.01;93.56
62942;BME280;49042;47.318;19.874;2023-04-21T05:12:52;100426.94;;;8.38;91.96
62942;BME280;49042;47.318;19.874;2023-04-21T05:15:57;100424.16;;;8.56;88.05
62942;BME280;49042;47.318;19.874;2023-04-21T05:19:02;100425.38;;;8.87;83.39
62942;BME280;49042;47.318;19.874;2023-04-21T05:22:04;100421.59;;;9.27;78.29
62942;BME280;49042;47.318;19.874;2023-04-21T05:25:10;100424.25;;;9.53;77.62
62942;BME280;49042;47.318;19.874;2023-04-21T05:28:15;100423.06;;;9.95;75.05
62942;BME280;49042;47.318;19.874;2023-04-21T05:31:16;100431.25;;;10.06;74.69
62942;BME280;49042;47.318;19.874;2023-04-21T05:34:18;100422.12;;;10.21;73.79
62942;BME280;49042;47.318;19.874;2023-04-21T05:37:20;100425.34;;;10.40;72.44
62942;BME280;49042;47.318;19.874;2023-04-21T05:40:22;100424.78;;;10.50;70.96
62942;BME280;49042;47.318;19.874;2023-04-21T05:43:23;100422.91;;;10.46;69.18
62942;BME280;49042;47.318;19.874;2023-04-21T05:46:25;100422.78;;;10.69;68.62
62942;BME280;49042;47.318;19.874;2023-04-21T05:49:27;100430.13;;;10.83;68.92
62942;BME280;49042;47.318;19.874;2023-04-21T05:52:28;100426.25;;;10.99;68.44
62942;BME280;49042;47.318;19.874;2023-04-21T05:55:33;100428.81;;;11.29;67.82
62942;BME280;49042;47.318;19.874;2023-04-21T05:58:35;100423.25;;;11.49;66.95
62942;BME280;49042;47.318;19.874;2023-04-21T06:01:36;100418.56;;;11.69;65.21
62942;BME280;49042;47.318;19.874;2023-04-21T06:04:38;100427.69;;;11.85;65.29
62942;BME280;49042;47.318;19.874;2023-04-21T06:07:40;100426.87;;;12.22;62.80
62942;BME280;49042;47.318;19.874;2023-04-21T06:10:42;100425.47;;;12.38;59.68
62942;BME280;49042;47.318;19.874;2023-04-21T06:13:43;100424.97;;;12.53;58.39
62942;BME280;49042;47.318;19.874;2023-04-21T06:16:45;100425.66;;;12.87;57.00
62942;BME280;49042;47.318;19.874;2023-04-21T06:19:47;100428.19;;;12.82;53.93
62942;BME280;49042;47.318;19.874;2023-04-21T06:22:53;100422.94;;;13.24;53.39
62942;BME280;49042;47.318;19.874;2023-04-21T06:26:02;100432.84;;;13.41;52.46
62942;BME280;49042;47.318;19.874;2023-04-21T06:29:05;100427.22;;;13.65;52.46
62942;BME280;49042;47.318;19.874;2023-04-21T06:32:08;100422.81;;;13.64;52.35
62942;BME280;49042;47.318;19.874;2023-04-21T06:35:10;100416.91;;;13.76;52.01
62942;BME280;49042;47.318;19.874;2023-04-21T06:38:12;100416.03;;;14.30;48.23
62942;BME280;49042;47.318;19.874;2023-04-21T06:41:13;100415.38;;;16.05;45.48
62942;BME280;49042;47.318;19.874;2023-04-21T06:44:15;100414.34;;;17.33;41.82
62942;BME280;49042;47.318;19.874;2023-04-21T06:47:17;100415.31;;;18.25;38.40
62942;BME280;49042;47.318;19.874;2023-04-21T06:50:19;100409.87;;;18.81;36.13
62942;BME280;49042;47.318;19.874;2023-04-21T06:53:21;100411.69;;;17.23;39.66
62942;BME280;49042;47.318;19.874;2023-04-21T06:56:23;100417.91;;;15.89;43.25
62942;BME280;49042;47.318;19.874;2023-04-21T06:59:24;100410.09;;;16.02;43.86
62942;BME280;49042;47.318;19.874;2023-04-21T07:02:26;100420.44;;;14.95;46.89
62942;BME280;49042;47.318;19.874;2023-04-21T07:05:28;100414.88;;;15.47;47.12
62942;BME280;49042;47.318;19.874;2023-04-21T07:08:30;100411.97;;;15.20;47.31
62942;BME280;49042;47.318;19.874;2023-04-21T07:11:31;100413.75;;;15.23;47.77
62942;BME280;49042;47.318;19.874;2023-04-21T07:14:33;100416.69;;;16.61;43.85
62942;BME280;49042;47.318;19.874;2023-04-21T07:17:35;100419.72;;;17.91;39.53
62942;BME280;49042;47.318;19.874;2023-04-21T07:20:36;100415.22;;;18.69;37.87
62942;BME280;49042;47.318;19.874;2023-04-21T07:23:38;100411.88;;;19.95;35.43
62942;BME280;49042;47.318;19.874;2023-04-21T07:26:40;100414.16;;;21.74;32.85
62942;BME280;49042;47.318;19.874;2023-04-21T07:29:41;100414.38;;;22.64;31.25
62942;BME280;49042;47.318;19.874;2023-04-21T07:32:43;100418.88;;;22.61;31.48
62942;BME280;49042;47.318;19.874;2023-04-21T07:35:45;100415.84;;;22.81;30.79
62942;BME280;49042;47.318;19.874;2023-04-21T07:38:46;100419.09;;;22.96;28.75
62942;BME280;49042;47.318;19.874;2023-04-21T07:41:48;100418.56;;;24.33;29.13
62942;BME280;49042;47.318;19.874;2023-04-21T07:44:50;100418.19;;;24.47;28.81
62942;BME280;49042;47.318;19.874;2023-04-21T07:47:53;100417.88;;;23.89;27.14
62942;BME280;49042;47.318;19.874;2023-04-21T07:50:54;100417.09;;;26.02;25.69
62942;BME280;49042;47.318;19.874;2023-04-21T07:53:58;100416.06;;;25.22;25.78
62942;BME280;49042;47.318;19.874;2023-04-21T07:57:00;100423.91;;;25.56;25.18
62942;BME280;49042;47.318;19.874;2023-04-21T08:00:06;100420.19;;;25.89;24.37
62942;BME280;49042;47.318;19.874;2023-04-21T08:03:08;100420.63;;;26.79;23.89
62942;BME280;49042;47.318;19.874;2023-04-21T08:06:10;100418.53;;;26.88;23.08
62942;BME280;49042;47.318;19.874;2023-04-21T08:09:11;100414.94;;;27.58;22.33
62942;BME280;49042;47.318;19.874;2023-04-21T08:12:13;100420.69;;;27.48;22.13
62942;BME280;49042;47.318;19.874;2023-04-21T08:15:15;100417.84;;;30.46;20.00
62942;BME280;49042;47.318;19.874;2023-04-21T08:18:17;100406.44;;;28.33;21.17
62942;BME280;49042;47.318;19.874;2023-04-21T08:21:22;100416.03;;;29.38;20.27
62942;BME280;49042;47.318;19.874;2023-04-21T08:24:25;100418.53;;;31.32;18.78
62942;BME280;49042;47.318;19.874;2023-04-21T08:27:26;100410.47;;;32.99;16.52
62942;BME280;49042;47.318;19.874;2023-04-21T08:30:28;100408.47;;;32.73;17.21
62942;BME280;49042;47.318;19.874;2023-04-21T08:33:30;100415.53;;;31.70;17.89
62942;BME280;49042;47.318;19.874;2023-04-21T08:36:31;100411.09;;;32.75;16.85
62942;BME280;49042;47.318;19.874;2023-04-21T08:39:33;100412.97;;;33.58;15.97
62942;BME280;49042;47.318;19.874;2023-04-21T08:42:37;100408.00;;;34.05;15.79
62942;BME280;49042;47.318;19.874;2023-04-21T08:45:40;100408.75;;;34.73;15.62
62942;BME280;49042;47.318;19.874;2023-04-21T08:48:45;100413.75;;;34.53;15.32
62942;BME280;49042;47.318;19.874;2023-04-21T08:51:47;100409.13;;;33.75;15.87
62942;BME280;49042;47.318;19.874;2023-04-21T08:54:49;100409.81;;;32.80;16.42
62942;BME280;49042;47.318;19.874;2023-04-21T08:57:53;100400.75;;;33.93;16.03
62942;BME280;49042;47.318;19.874;2023-04-21T09:00:55;100400.34;;;34.51;15.73
62942;BME280;49042;47.318;19.874;2023-04-21T09:04:15;100399.34;;;34.26;15.80
62942;BME280;49042;47.318;19.874;2023-04-21T09:07:35;100395.53;;;33.36;15.92
62942;BME280;49042;47.318;19.874;2023-04-21T09:10:48;100400.19;;;32.62;16.04
62942;BME280;49042;47.318;19.874;2023-04-21T09:13:50;100396.41;;;32.20;17.32
62942;BME280;49042;47.318;19.874;2023-04-21T09:16:59;100388.22;;;32.51;16.45
62942;BME280;49042;47.318;19.874;2023-04-21T09:23:17;100393.37;;;33.41;15.91
62942;BME280;49042;47.318;19.874;2023-04-21T09:26:20;100389.47;;;33.32;15.76
62942;BME280;49042;47.318;19.874;2023-04-21T09:29:24;100384.28;;;32.42;15.96
62942;BME280;49042;47.318;19.874;2023-04-21T09:32:26;100380.22;;;31.74;16.39
62942;BME280;49042;47.318;19.874;2023-04-21T09:35:29;100383.84;;;30.77;17.39
62942;BME280;49042;47.318;19.874;2023-04-21T09:38:31;100375.13;;;29.68;18.65
62942;BME280;49042;47.318;19.874;2023-04-21T09:41:33;100373.22;;;29.53;18.47
62942;BME280;49042;47.318;19.874;2023-04-21T09:44:34;100380.69;;;29.83;18.44
62942;BME280;49042;47.318;19.874;2023-04-21T09:47:58;100376.34;;;29.98;18.56
62942;BME280;49042;47.318;19.874;2023-04-21T09:51:01;100367.09;;;30.88;18.71
62942;BME280;49042;47.318;19.874;2023-04-21T09:54:28;100369.78;;;31.21;17.42
62942;BME280;49042;47.318;19.874;2023-04-21T09:57:31;100358.87;;;31.39;17.27
62942;BME280;49042;47.318;19.874;2023-04-21T10:00:33;100358.06;;;31.69;17.89
62942;BME280;49042;47.318;19.874;2023-04-21T10:03:40;100359.34;;;30.66;18.93
62942;BME280;49042;47.318;19.874;2023-04-21T10:06:46;100352.97;;;28.09;20.33
62942;BME280;49042;47.318;19.874;2023-04-21T10:09:51;100344.84;;;27.69;22.43
62942;BME280;49042;47.318;19.874;2023-04-21T10:12:54;100351.66;;;26.39;22.71
62942;BME280;49042;47.318;19.874;2023-04-21T10:16:07;100344.91;;;26.03;23.84
62942;BME280;49042;47.318;19.874;2023-04-21T10:19:26;100338.97;;;23.50;26.37
62942;BME280;49042;47.318;19.874;2023-04-21T10:22:29;100336.38;;;23.08;27.27
62942;BME280;49042;47.318;19.874;2023-04-21T10:25:31;100339.31;;;22.07;28.51
62942;BME280;49042;47.318;19.874;2023-04-21T10:31:57;100329.16;;;21.78;28.79
62942;BME280;49042;47.318;19.874;2023-04-21T10:34:59;100326.00;;;20.95;30.35
62942;BME280;49042;47.318;19.874;2023-04-21T10:38:01;100333.50;;;21.30;30.63
62942;BME280;49042;47.318;19.874;2023-04-21T10:41:25;100324.06;;;21.10;30.92
62942;BME280;49042;47.318;19.874;2023-04-21T10:44:30;100310.91;;;20.99;32.73
62942;BME280;49042;47.318;19.874;2023-04-21T10:47:44;100314.50;;;20.96;30.40
62942;BME280;49042;47.318;19.874;2023-04-21T10:50:47;100308.22;;;21.04;30.18
62942;BME280;49042;47.318;19.874;2023-04-21T10:53:49;100307.06;;;20.57;29.20
62942;BME280;49042;47.318;19.874;2023-04-21T10:56:52;100309.66;;;19.81;31.34
62942;BME280;49042;47.318;19.874;2023-04-21T10:59:54;100303.31;;;19.99;31.32
62942;BME280;49042;47.318;19.874;2023-04-21T11:03:01;100303.03;;;20.28;33.70
62942;BME280;49042;47.318;19.874;2023-04-21T11:06:14;100293.53;;;20.05;32.16
62942;BME280;49042;47.318;19.874;2023-04-21T11:09:16;100301.47;;;20.81;33.23
62942;BME280;49042;47.318;19.874;2023-04-21T11:12:18;100295.06;;;20.96;29.60
62942;BME280;49042;47.318;19.874;2023-04-21T11:15:20;100293.59;;;20.74;28.91
62942;BME280;49042;47.318;19.874;2023-04-21T11:18:31;100288.91;;;20.94;30.40
62942;BME280;49042;47.318;19.874;2023-04-21T11:21:33;100286.12;;;20.38;30.81
62942;BME280;49042;47.318;19.874;2023-04-21T11:24:35;100293.78;;;21.24;30.68
62942;BME280;49042;47.318;19.874;2023-04-21T11:27:37;100294.03;;;21.64;29.75
62942;BME280;49042;47.318;19.874;2023-04-21T11:30:38;100288.22;;;20.81;29.80
62942;BME280;49042;47.318;19.874;2023-04-21T11:33:40;100293.81;;;19.76;31.54
62942;BME280;49042;47.318;19.874;2023-04-21T11:36:43;100291.13;;;19.81;30.20
62942;BME280;49042;47.318;19.874;2023-04-21T11:39:45;100289.88;;;20.20;31.24
62942;BME280;49042;47.318;19.874;2023-04-21T11:42:47;100284.84;;;20.68;30.47
62942;BME280;49042;47.318;19.874;2023-04-21T11:45:49;100287.06;;;20.34;29.88
62942;BME280;49042;47.318;19.874;2023-04-21T11:52:02;100277.78;;;20.68;29.41
62942;BME280;49042;47.318;19.874;2023-04-21T11:55:05;100278.91;;;21.15;29.14
62942;BME280;49042;47.318;19.874;2023-04-21T11:58:07;100270.25;;;21.59;31.54
62942;BME280;49042;47.318;19.874;2023-04-21T12:01:10;100270.00;;;22.21;28.71
62942;BME280;49042;47.318;19.874;2023-04-21T12:04:23;100275.94;;;21.85;30.07
62942;BME280;49042;47.318;19.874;2023-04-21T12:07:25;100258.94;;;21.47;28.80
62942;BME280;49042;47.318;19.874;2023-04-21T12:10:28;100265.84;;;20.99;31.25
62942;BME280;49042;47.318;19.874;2023-04-21T12:13:30;100270.47;;;20.19;32.07
62942;BME280;49042;47.318;19.874;2023-04-21T12:16:35;100263.09;;;19.61;31.76
62942;BME280;49042;47.318;19.874;2023-04-21T12:19:41;100265.72;;;19.63;32.69
62942;BME280;49042;47.318;19.874;2023-04-21T12:22:43;100254.56;;;19.32;32.85
62942;BME280;49042;47.318;19.874;2023-04-21T12:25:45;100263.44;;;19.23;33.23
62942;BME280;49042;47.318;19.874;2023-04-21T12:28:47;100264.19;;;19.40;33.29
62942;BME280;49042;47.318;19.874;2023-04-21T12:31:49;100265.06;;;19.37;32.20
62942;BME280;49042;47.318;19.874;2023-04-21T12:34:51;100257.03;;;19.50;31.99
62942;BME280;49042;47.318;19.874;2023-04-21T12:37:52;100257.87;;;19.55;31.53
62942;BME280;49042;47.318;19.874;2023-04-21T12:40:54;100257.72;;;19.71;31.93
62942;BME280;49042;47.318;19.874;2023-04-21T12:43:56;100250.22;;;20.14;32.19
62942;BME280;49042;47.318;19.874;2023-04-21T12:46:58;100251.34;;;19.92;30.96
62942;BME280;49042;47.318;19.874;2023-04-21T12:49:59;100251.94;;;20.15;30.40
62942;BME280;49042;47.318;19.874;2023-04-21T12:53:01;100246.75;;;21.37;29.08
62942;BME280;49042;47.318;19.874;2023-04-21T12:56:04;100249.56;;;23.41;27.03
62942;BME280;49042;47.318;19.874;2023-04-21T12:59:06;100247.59;;;24.15;25.10
62942;BME280;49042;47.318;19.874;2023-04-21T13:02:08;100242.12;;;24.52;26.19
62942;BME280;49042;47.318;19.874;2023-04-21T13:05:09;100245.41;;;25.96;23.58
62942;BME280;49042;47.318;19.874;2023-04-21T13:08:13;100245.84;;;24.14;24.08
62942;BME280;49042;47.318;19.874;2023-04-21T13:11:14;100242.94;;;23.59;26.69
62942;BME280;49042;47.318;19.874;2023-04-21T13:14:17;100239.19;;;23.30;26.42
62942;BME280;49042;47.318;19.874;2023-04-21T13:17:18;100246.06;;;22.64;27.89
62942;BME280;49042;47.318;19.874;2023-04-21T13:20:21;100232.78;;;21.24;29.23
62942;BME280;49042;47.318;19.874;2023-04-21T13:23:22;100235.31;;;21.33;29.77
62942;BME280;49042;47.318;19.874;2023-04-21T13:29:45;100239.72;;;24.42;26.27
62942;BME280;49042;47.318;19.874;2023-04-21T13:32:48;100240.19;;;25.93;23.58
62942;BME280;49042;47.318;19.874;2023-04-21T13:35:50;100228.06;;;27.23;20.84
62942;BME280;49042;47.318;19.874;2023-04-21T13:38:52;100221.00;;;29.35;19.67
62942;BME280;49042;47.318;19.874;2023-04-21T13:41:56;100223.09;;;29.11;18.29
62942;BME280;49042;47.318;19.874;2023-04-21T13:44:59;100227.16;;;30.56;17.20
62942;BME280;49042;47.318;19.874;2023-04-21T13:48:03;100224.53;;;29.54;17.96
62942;BME280;49042;47.318;19.874;2023-04-21T13:51:05;100222.84;;;30.35;17.38
62942;BME280;49042;47.318;19.874;2023-04-21T13:54:07;100210.69;;;32.97;14.97
62942;BME280;49042;47.318;19.874;2023-04-21T13:57:09;100216.56;;;32.48;15.67
62942;BME280;49042;47.318;19.874;2023-04-21T14:00:11;100208.19;;;24.86;23.69
62942;BME280;49042;47.318;19.874;2023-04-21T14:03:13;100205.91;;;23.48;25.22
62942;BME280;49042;47.318;19.874;2023-04-21T14:06:15;100214.69;;;22.80;26.57
62942;BME280;49042;47.318;19.874;2023-04-21T14:09:17;100204.56;;;22.17;27.52
62942;BME280;49042;47.318;19.874;2023-04-21T14:12:19;100212.34;;;21.80;28.30
62942;BME280;49042;47.318;19.874;2023-04-21T14:15:21;100194.91;;;21.17;27.91
62942;BME280;49042;47.318;19.874;2023-04-21T14:18:23;100198.44;;;21.67;26.57
62942;BME280;49042;47.318;19.874;2023-04-21T14:21:25;100192.75;;;21.38;27.73
62942;BME280;49042;47.318;19.874;2023-04-21T14:24:27;100187.00;;;21.14;27.82
62942;BME280;49042;47.318;19.874;2023-04-21T14:27:31;100190.31;;;22.19;25.47
62942;BME280;49042;47.318;19.874;2023-04-21T14:30:36;100181.94;;;22.40;25.13
62942;BME280;49042;47.318;19.874;2023-04-21T14:33:38;100185.81;;;22.63;25.92
62942;BME280;49042;47.318;19.874;2023-04-21T14:36:41;100180.19;;;22.39;25.12
62942;BME280;49042;47.318;19.874;2023-04-21T14:39:43;100182.19;;;22.27;24.70
62942;BME280;49042;47.318;19.874;2023-04-21T14:42:45;100188.56;;;21.74;25.60
62942;BME280;49042;47.318;19.874;2023-04-21T14:45:47;100175.50;;;21.13;26.57
62942;BME280;49042;47.318;19.874;2023-04-21T14:48:58;100178.97;;;21.18;28.34
62942;BME280;49042;47.318;19.874;2023-04-21T14:52:02;100178.56;;;20.28;28.34
62942;BME280;49042;47.318;19.874;2023-04-21T14:55:04;100169.84;;;20.21;28.74
62942;BME280;49042;47.318;19.874;2023-04-21T14:58:06;100168.03;;;20.25;28.45
62942;BME280;49042;47.318;19.874;2023-04-21T15:01:08;100167.47;;;20.62;27.62
62942;BME280;49042;47.318;19.874;2023-04-21T15:04:11;100167.00;;;20.33;28.62
62942;BME280;49042;47.318;19.874;2023-04-21T15:07:13;100169.69;;;19.57;29.45
62942;BME280;49042;47.318;19.874;2023-04-21T15:10:15;100170.94;;;19.22;29.51
62942;BME280;49042;47.318;19.874;2023-04-21T15:13:17;100160.28;;;19.26;29.86
62942;BME280;49042;47.318;19.874;2023-04-21T15:16:19;100160.25;;;20.09;28.11
62942;BME280;49042;47.318;19.874;2023-04-21T15:19:21;100160.25;;;20.09;27.79
62942;BME280;49042;47.318;19.874;2023-04-21T15:22:25;100156.69;;;20.11;28.21
62942;BME280;49042;47.318;19.874;2023-04-21T15:25:27;100158.72;;;20.59;27.90
62942;BME280;49042;47.318;19.874;2023-04-21T15:28:29;100157.59;;;20.10;27.50
62942;BME280;49042;47.318;19.874;2023-04-21T15:31:31;100152.47;;;20.63;27.63
62942;BME280;49042;47.318;19.874;2023-04-21T15:34:33;100153.97;;;21.34;25.78
62942;BME280;49042;47.318;19.874;2023-04-21T15:37:34;100157.38;;;20.86;29.07
62942;BME280;49042;47.318;19.874;2023-04-21T15:40:36;100153.53;;;21.06;26.86
62942;BME280;49042;47.318;19.874;2023-04-21T15:43:53;100152.31;;;21.26;26.68
62942;BME280;49042;47.318;19.874;2023-04-21T15:46:55;100149.31;;;20.94;26.69
62942;BME280;49042;47.318;19.874;2023-04-21T15:49:57;100148.31;;;20.43;26.82
62942;BME280;49042;47.318;19.874;2023-04-21T15:53:03;100153.78;;;20.33;27.79
62942;BME280;49042;47.318;19.874;2023-04-21T15:56:05;100156.28;;;19.73;29.26
62942;BME280;49042;47.318;19.874;2023-04-21T15:59:06;100157.72;;;19.22;31.37